createdAt,value
2018-04-12T00:00:08.466Z,90.54
2018-04-12T00:02:36.459Z,90.46
2018-04-12T00:05:08.217Z,90.50
2018-04-12T00:07:36.875Z,90.62
2018-04-12T00:10:06.438Z,90.58
2018-04-12T00:12:34.457Z,90.66
2018-04-12T00:15:09.285Z,91.51
2018-04-12T00:17:37.305Z,91.47
2018-04-12T00:20:06.891Z,91.04
2018-04-12T00:22:34.911Z,90.64
2018-04-12T00:25:06.195Z,90.95
2018-04-12T00:27:34.443Z,91.08
2018-04-12T00:30:09.287Z,91.07
2018-04-12T00:32:37.299Z,91.35
2018-04-12T00:35:06.633Z,91.61
2018-04-12T00:37:34.845Z,91.28
2018-04-12T00:40:09.569Z,90.58
2018-04-12T00:42:37.579Z,90.22
2018-04-12T00:45:06.739Z,90.04
2018-04-12T00:47:34.907Z,89.91
2018-04-12T00:50:09.691Z,90.08
2018-04-12T00:52:37.915Z,90.45
2018-04-12T00:55:06.617Z,90.48
2018-04-12T00:57:34.620Z,90.56
2018-04-12T01:00:05.619Z,90.53
2018-04-12T01:02:33.627Z,90.06
2018-04-12T01:07:34.731Z,90.15
2018-04-12T01:10:06.369Z,89.68
2018-04-12T01:12:34.355Z,89.77
2018-04-12T01:15:06.008Z,90.17
2018-04-12T01:17:34.288Z,90.60
2018-04-12T01:20:05.619Z,90.96
2018-04-12T01:22:33.791Z,90.48
2018-04-12T01:25:08.162Z,89.95
2018-04-12T01:27:36.280Z,90.49
2018-04-12T01:30:08.417Z,90.74
2018-04-12T01:32:36.690Z,90.29
2018-04-12T01:35:07.632Z,90.58
2018-04-12T01:37:35.614Z,91.02
2018-04-12T01:40:07.385Z,90.53
2018-04-12T01:42:35.395Z,90.68
2018-04-12T01:45:06.979Z,90.77
2018-04-12T01:47:35.107Z,90.73
2018-04-12T01:50:06.451Z,90.77
2018-04-12T01:52:34.459Z,90.49
2018-04-12T01:55:05.751Z,90.53
2018-04-12T01:57:33.780Z,90.32
2018-04-12T02:00:09.461Z,90.19
2018-04-12T02:02:37.871Z,89.86
2018-04-12T02:05:06.545Z,89.91
2018-04-12T02:07:34.573Z,90.21
2018-04-12T02:10:09.275Z,89.78
2018-04-12T02:12:37.296Z,90.13
2018-04-12T02:15:06.519Z,90.26
2018-04-12T02:17:34.548Z,90.38
2018-04-12T02:20:09.434Z,89.99
2018-04-12T02:22:38.534Z,90.22
2018-04-12T02:25:06.639Z,90.30
2018-04-12T02:27:34.665Z,90.80
2018-04-12T02:30:09.583Z,90.58
2018-04-12T02:32:37.608Z,90.42
2018-04-12T02:35:06.502Z,90.35
2018-04-12T02:37:34.448Z,89.59
2018-04-12T02:40:09.376Z,89.94
2018-04-12T02:42:37.457Z,90.37
2018-04-12T02:45:06.707Z,90.71
2018-04-12T02:47:34.707Z,91.54
2018-04-12T02:50:05.718Z,91.70
2018-04-12T02:52:33.731Z,92.81
2018-04-12T02:57:34.980Z,93.88
2018-04-12T03:00:09.843Z,94.25
2018-04-12T03:02:37.851Z,94.27
2018-04-12T03:05:06.636Z,94.01
2018-04-12T03:07:34.638Z,94.85
2018-04-12T03:10:09.403Z,95.40
2018-04-12T03:12:37.412Z,95.35
2018-04-12T03:15:07.102Z,94.68
2018-04-12T03:17:35.103Z,94.41
2018-04-12T03:20:08.866Z,94.04
2018-04-12T03:22:37.051Z,94.34
2018-04-12T03:25:06.608Z,95.37
2018-04-12T03:27:34.611Z,95.41
2018-04-12T03:30:09.487Z,95.02
2018-04-12T03:32:37.879Z,95.28
2018-04-12T03:35:06.814Z,95.33
2018-04-12T03:37:34.872Z,95.71
2018-04-12T03:40:08.033Z,95.67
2018-04-12T03:42:36.115Z,95.70
2018-04-12T03:45:08.088Z,95.52
2018-04-12T03:47:36.450Z,95.87
2018-04-12T03:50:07.414Z,95.64
2018-04-12T03:52:36.070Z,95.26
2018-04-12T03:55:07.083Z,95.10
2018-04-12T03:57:35.086Z,94.92
2018-04-12T04:00:09.775Z,94.85
2018-04-12T04:02:37.802Z,94.45
2018-04-12T04:05:07.315Z,94.64
2018-04-12T04:07:35.342Z,94.26
2018-04-12T04:10:06.710Z,94.47
2018-04-12T04:12:35.027Z,94.09
2018-04-12T04:15:23.659Z,94.03
2018-04-12T04:18:03.691Z,94.02
2018-04-12T04:20:43.562Z,94.28
2018-04-12T04:23:11.672Z,94.12
2018-04-12T04:25:39.682Z,93.39
2018-04-12T04:28:07.708Z,93.69
2018-04-12T04:30:35.780Z,93.76
2018-04-12T04:33:04.671Z,93.94
2018-04-12T04:35:32.671Z,94.05
2018-04-12T04:38:00.991Z,93.81
2018-04-12T04:40:29.198Z,93.81
2018-04-12T04:42:57.391Z,94.37
2018-04-12T04:45:25.396Z,94.33
2018-04-12T04:47:53.448Z,93.92
2018-04-12T04:50:21.470Z,93.87
2018-04-12T04:52:49.498Z,93.63
2018-04-12T04:55:17.502Z,93.69
2018-04-12T04:57:46.270Z,94.18
2018-04-12T05:00:14.308Z,94.50
2018-04-12T05:02:42.443Z,95.13
2018-04-12T05:05:10.455Z,95.53
2018-04-12T05:07:38.452Z,95.56
2018-04-12T05:10:06.782Z,95.70
2018-04-12T05:12:34.786Z,96.19
2018-04-12T05:15:05.847Z,96.05
2018-04-12T05:17:33.879Z,96.59
2018-04-12T05:20:05.795Z,96.87
2018-04-12T05:22:33.821Z,96.85
2018-04-12T05:25:08.367Z,96.12
2018-04-12T05:27:36.382Z,94.81
2018-04-12T05:30:08.801Z,94.51
2018-04-12T05:32:36.783Z,94.36
2018-04-12T05:35:08.626Z,94.30
2018-04-12T05:37:36.719Z,94.55
2018-04-12T05:40:06.723Z,94.10
2018-04-12T05:42:34.739Z,93.60
2018-04-12T05:45:09.575Z,93.77
2018-04-12T05:47:37.856Z,93.85
2018-04-12T05:50:06.907Z,93.21
2018-04-12T05:52:34.909Z,93.23
2018-04-12T05:55:06.210Z,94.11
2018-04-12T05:57:34.211Z,93.98
2018-04-12T06:00:07.628Z,93.28
2018-04-12T06:02:35.633Z,92.47
2018-04-12T06:05:06.463Z,92.30
2018-04-12T06:07:34.493Z,92.63
2018-04-12T06:10:09.055Z,92.80
2018-04-12T06:12:37.099Z,93.07
2018-04-12T06:15:08.192Z,93.52
2018-04-12T06:17:36.222Z,94.86
2018-04-12T06:20:07.841Z,96.01
2018-04-12T06:22:35.860Z,96.62
2018-04-12T06:25:07.294Z,96.31
2018-04-12T06:27:35.321Z,94.84
2018-04-12T06:30:06.701Z,94.28
2018-04-12T06:32:34.725Z,93.74
2018-04-12T06:35:09.435Z,93.63
2018-04-12T06:37:37.471Z,94.22
2018-04-12T06:40:06.608Z,93.94
2018-04-12T06:42:34.642Z,92.94
2018-04-12T06:45:05.665Z,93.38
2018-04-12T06:47:33.683Z,93.75
2018-04-12T06:50:05.571Z,93.05
2018-04-12T06:52:34.023Z,92.87
2018-04-12T06:55:07.764Z,92.93
2018-04-12T06:57:35.776Z,92.93
2018-04-12T07:00:07.339Z,93.27
2018-04-12T07:02:35.352Z,93.11
2018-04-12T07:05:06.998Z,91.75
2018-04-12T07:07:36.377Z,91.33
2018-04-12T07:10:05.934Z,91.63
2018-04-12T07:12:33.932Z,91.37
2018-04-12T07:15:05.092Z,91.69
2018-04-12T07:17:33.087Z,91.40
2018-04-12T07:20:07.439Z,92.41
2018-04-12T07:22:35.439Z,92.20
2018-04-12T07:25:06.784Z,90.62
2018-04-12T07:27:35.013Z,89.55
2018-04-12T07:30:06.443Z,89.33
2018-04-12T07:32:34.614Z,87.73
2018-04-12T07:35:05.888Z,88.58
2018-04-12T07:37:34.072Z,86.39
2018-04-12T07:40:05.465Z,86.08
2018-04-12T07:42:33.603Z,85.82
2018-04-12T07:45:08.005Z,86.67
2018-04-12T07:47:36.119Z,86.92
2018-04-12T07:50:07.473Z,85.23
2018-04-12T07:52:35.466Z,84.00
2018-04-12T07:55:07.235Z,86.25
2018-04-12T07:57:35.386Z,84.94
2018-04-12T08:00:06.788Z,86.33
2018-04-12T08:02:34.836Z,86.93
2018-04-12T08:05:06.419Z,88.05
2018-04-12T08:07:34.439Z,87.26
2018-04-12T08:10:05.876Z,87.46
2018-04-12T08:12:33.891Z,87.13
2018-04-12T08:15:08.535Z,84.14
2018-04-12T08:17:36.568Z,83.78
2018-04-12T08:20:06.100Z,75.66
2018-04-12T08:22:34.360Z,74.62
2018-04-12T08:25:06.461Z,73.45
2018-04-12T08:27:34.470Z,75.42
2018-04-12T08:30:06.444Z,79.39
2018-04-12T08:32:34.485Z,77.85
2018-04-12T08:35:06.296Z,75.04
2018-04-12T08:37:34.327Z,77.29
2018-04-12T08:40:05.487Z,79.94
2018-04-12T08:42:33.850Z,80.28
2018-04-12T08:45:09.022Z,80.13
2018-04-12T08:47:37.050Z,79.35
2018-04-12T08:50:06.395Z,79.47
2018-04-12T08:52:34.420Z,79.59
2018-04-12T08:55:06.380Z,74.34
2018-04-12T08:57:34.988Z,73.58
2018-04-12T09:00:06.822Z,73.66
2018-04-12T09:02:35.780Z,71.22
2018-04-12T09:05:06.871Z,73.55
2018-04-12T09:07:34.884Z,71.86
2018-04-12T09:10:06.449Z,72.48
2018-04-12T09:12:34.504Z,75.85
2018-04-12T09:15:05.834Z,74.64
2018-04-12T09:17:33.832Z,73.29
2018-04-12T09:20:05.111Z,73.16
2018-04-12T09:22:33.135Z,71.33
2018-04-12T09:25:05.125Z,67.77
2018-04-12T09:27:33.141Z,62.91
2018-04-12T09:30:08.450Z,65.42
2018-04-12T09:32:36.462Z,60.29
2018-04-12T09:35:05.983Z,57.38
2018-04-12T09:37:33.988Z,57.31
2018-04-12T09:40:08.682Z,58.90
2018-04-12T09:42:41.111Z,58.62
2018-04-12T09:45:09.598Z,64.13
2018-04-12T09:47:37.597Z,65.96
2018-04-12T09:50:06.535Z,67.18
2018-04-12T09:52:34.541Z,64.50
2018-04-12T09:55:05.897Z,65.54
2018-04-12T09:57:34.139Z,67.49
2018-04-12T10:00:06.076Z,68.21
2018-04-12T10:05:35.252Z,64.04
2018-04-12T10:08:08.724Z,63.10
2018-04-12T10:10:36.764Z,62.41
2018-04-12T10:13:04.793Z,60.77
2018-04-12T10:15:32.823Z,63.95
2018-04-12T10:18:00.831Z,60.79
2018-04-12T10:20:28.849Z,62.72
2018-04-12T10:22:56.874Z,59.95
2018-04-12T10:25:24.875Z,63.77
2018-04-12T10:27:52.903Z,64.11
2018-04-12T10:30:20.934Z,60.04
2018-04-12T10:32:48.950Z,60.34
2018-04-12T10:35:16.958Z,60.88
2018-04-12T10:37:44.970Z,59.58
2018-04-12T10:40:13.003Z,59.79
2018-04-12T10:42:41.032Z,60.61
2018-04-12T10:45:09.031Z,63.51
2018-04-12T10:47:37.208Z,59.49
2018-04-12T10:50:06.398Z,62.18
2018-04-12T10:52:34.412Z,62.87
2018-04-12T10:55:06.633Z,63.00
2018-04-12T10:57:34.655Z,61.22
2018-04-12T11:00:05.962Z,58.69
2018-04-12T11:02:33.990Z,60.16
2018-04-12T11:05:05.189Z,57.80
2018-04-12T11:07:33.237Z,56.95
2018-04-12T11:10:04.478Z,56.38
2018-04-12T11:12:33.123Z,58.94
2018-04-12T11:15:05.230Z,58.63
2018-04-12T11:17:33.546Z,58.25
2018-04-12T11:20:04.555Z,57.96
2018-04-12T11:22:32.756Z,56.45
2018-04-12T11:25:05.438Z,57.58
2018-04-12T11:27:33.438Z,62.77
2018-04-12T11:30:04.547Z,62.52
2018-04-12T11:32:32.659Z,62.68
2018-04-12T11:35:05.699Z,62.26
2018-04-12T11:37:34.736Z,57.96
2018-04-12T11:40:06.481Z,55.32
2018-04-12T11:42:34.495Z,51.45
2018-04-12T11:45:05.646Z,56.24
2018-04-12T11:47:33.665Z,56.18
2018-04-12T11:50:08.198Z,48.24
2018-04-12T11:52:36.314Z,47.13
2018-04-12T11:55:07.662Z,45.64
2018-04-12T11:57:35.662Z,44.98
2018-04-12T12:00:07.338Z,50.09
2018-04-12T12:02:35.367Z,44.34
2018-04-12T12:05:07.067Z,43.00
2018-04-12T12:07:35.083Z,44.08
2018-04-12T12:10:06.281Z,43.60
2018-04-12T12:12:34.812Z,41.57
2018-04-12T12:15:05.857Z,44.14
2018-04-12T12:17:33.960Z,46.88
2018-04-12T12:20:05.828Z,45.36
2018-04-12T12:22:33.834Z,48.99
2018-04-12T12:25:08.222Z,53.37
2018-04-12T12:27:36.239Z,56.11
2018-04-12T12:30:05.846Z,54.68
2018-04-12T12:32:33.851Z,55.31
2018-04-12T12:35:08.259Z,57.53
2018-04-12T12:37:36.482Z,60.21
2018-04-12T12:40:06.043Z,57.56
2018-04-12T12:42:34.215Z,58.49
2018-04-12T12:45:09.248Z,59.95
2018-04-12T12:47:37.365Z,59.90
2018-04-12T12:50:06.474Z,56.91
2018-04-12T12:52:34.560Z,59.48
2018-04-12T12:55:05.752Z,60.63
2018-04-12T12:57:34.007Z,59.59
2018-04-12T13:00:07.403Z,59.26
2018-04-12T13:02:35.442Z,55.72
2018-04-12T13:05:08.255Z,54.52
2018-04-12T13:07:36.282Z,55.60
2018-04-12T13:10:06.593Z,53.81
2018-04-12T13:12:34.607Z,53.86
2018-04-12T13:15:05.904Z,53.58
2018-04-12T13:17:33.926Z,55.10
2018-04-12T13:20:08.251Z,52.52
2018-04-12T13:22:36.319Z,51.29
2018-04-12T13:25:05.943Z,53.15
2018-04-12T13:27:34.173Z,53.10
2018-04-12T13:30:05.307Z,52.02
2018-04-12T13:32:33.332Z,50.76
2018-04-12T13:35:08.436Z,51.98
2018-04-12T13:37:36.457Z,52.07
2018-04-12T13:40:06.271Z,52.21
2018-04-12T13:42:34.296Z,53.03
2018-04-12T13:45:07.035Z,48.82
2018-04-12T13:47:35.277Z,50.46
2018-04-12T13:50:06.357Z,50.04
2018-04-12T13:52:45.195Z,49.28
2018-04-12T13:55:13.256Z,49.94
2018-04-12T13:57:41.245Z,49.80
2018-04-12T14:00:09.258Z,49.93
2018-04-12T14:02:37.300Z,50.56
2018-04-12T14:05:06.752Z,50.86
2018-04-12T14:07:34.796Z,50.65
2018-04-12T14:10:06.297Z,49.64
2018-04-12T14:12:34.303Z,48.81
2018-04-12T14:15:09.027Z,48.03
2018-04-12T14:17:37.041Z,48.96
2018-04-12T14:20:06.464Z,46.89
2018-04-12T14:22:34.498Z,48.99
2018-04-12T14:25:08.182Z,49.07
2018-04-12T14:27:36.243Z,46.66
2018-04-12T14:30:06.122Z,47.29
2018-04-12T14:32:34.626Z,48.43
2018-04-12T14:35:06.847Z,49.08
2018-04-12T14:37:35.344Z,49.00
2018-04-12T14:40:06.103Z,50.26
2018-04-12T14:42:34.115Z,51.30
2018-04-12T14:45:05.285Z,50.13
2018-04-12T14:47:33.428Z,49.94
2018-04-12T14:50:04.412Z,49.99
2018-04-12T14:52:32.544Z,50.48
2018-04-12T14:55:00.589Z,51.17
2018-04-12T14:57:31.831Z,50.55
2018-04-12T15:00:00.027Z,50.35
2018-04-12T15:02:33.921Z,51.23
2018-04-12T15:05:05.834Z,50.35
2018-04-12T15:07:33.846Z,50.72
2018-04-12T15:10:08.395Z,50.97
2018-04-12T15:12:36.435Z,49.89
2018-04-12T15:15:06.079Z,49.51
2018-04-12T15:17:34.115Z,48.57
2018-04-12T15:20:05.348Z,49.25
2018-04-12T15:22:33.363Z,49.55
2018-04-12T15:27:34.006Z,48.46
2018-04-12T15:30:08.435Z,48.00
2018-04-12T15:32:36.460Z,47.54
2018-04-12T15:35:06.179Z,48.41
2018-04-12T15:37:34.260Z,48.32
2018-04-12T15:40:05.778Z,48.20
2018-04-12T15:42:34.400Z,47.94
2018-04-12T15:45:09.308Z,48.74
2018-04-12T15:47:38.231Z,48.79
2018-04-12T15:50:06.249Z,48.57
2018-04-12T15:52:34.418Z,47.79
2018-04-12T15:55:06.818Z,47.84
2018-04-12T15:57:34.952Z,48.06
2018-04-12T16:00:10.924Z,47.30
2018-04-12T16:02:38.959Z,48.54
2018-04-12T16:05:06.948Z,48.22
2018-04-12T16:07:34.976Z,47.87
2018-04-12T16:10:06.144Z,47.64
2018-04-12T16:12:34.790Z,48.14
2018-04-12T16:15:09.594Z,48.87
2018-04-12T16:17:37.612Z,49.38
2018-04-12T16:20:06.555Z,49.11
2018-04-12T16:22:34.556Z,49.95
2018-04-12T16:25:06.511Z,49.25
2018-04-12T16:27:34.531Z,50.40
2018-04-12T16:30:09.341Z,49.85
2018-04-12T16:32:37.339Z,50.92
2018-04-12T16:35:06.173Z,51.49
2018-04-12T16:37:34.639Z,51.42
2018-04-12T16:40:08.391Z,51.44
2018-04-12T16:42:37.315Z,51.63
2018-04-12T16:45:07.495Z,51.83
2018-04-12T16:47:35.506Z,52.22
2018-04-12T16:50:06.135Z,51.74
2018-04-12T16:52:34.171Z,51.89
2018-04-12T16:55:09.422Z,51.63
2018-04-12T16:57:38.265Z,51.10
2018-04-12T17:00:06.305Z,51.26
2018-04-12T17:02:34.319Z,51.40
2018-04-12T17:05:05.943Z,52.30
2018-04-12T17:07:33.976Z,52.18
2018-04-12T17:10:08.384Z,52.85
2018-04-12T17:12:36.593Z,49.90
2018-04-12T17:15:06.296Z,49.66
2018-04-12T17:17:34.503Z,49.78
2018-04-12T17:20:09.196Z,47.69
2018-04-12T17:22:37.439Z,47.86
2018-04-12T17:25:07.759Z,47.82
2018-04-12T17:27:35.758Z,48.08
2018-04-12T17:30:06.274Z,48.13
2018-04-12T17:32:34.294Z,48.08
2018-04-12T17:35:05.541Z,48.42
2018-04-12T17:37:33.597Z,48.82
2018-04-12T17:40:04.852Z,49.12
2018-04-12T17:42:32.883Z,49.79
2018-04-12T17:45:04.168Z,49.73
2018-04-12T17:47:32.666Z,49.86
2018-04-12T17:50:02.412Z,50.59
2018-04-12T17:52:32.179Z,50.88
2018-04-12T17:55:00.250Z,50.64
2018-04-12T17:57:31.455Z,51.34
2018-04-12T17:59:59.473Z,50.75
2018-04-12T18:02:27.492Z,50.52
2018-04-12T18:04:55.501Z,50.95
2018-04-12T18:07:24.127Z,51.94
2018-04-12T18:09:52.164Z,51.96
2018-04-12T18:12:20.179Z,52.61
2018-04-12T18:14:48.199Z,52.36
2018-04-12T18:17:16.203Z,52.45
2018-04-12T18:19:44.240Z,52.27
2018-04-12T18:22:12.276Z,52.63
2018-04-12T18:24:40.500Z,53.27
2018-04-12T18:27:08.569Z,53.49
2018-04-12T18:29:36.591Z,52.42
2018-04-12T18:32:04.599Z,52.64
2018-04-12T18:34:32.776Z,53.10
2018-04-12T18:37:01.215Z,52.93
2018-04-12T18:39:29.526Z,53.28
2018-04-12T18:41:57.522Z,52.92
2018-04-12T18:44:25.547Z,53.40
2018-04-12T18:46:53.947Z,53.61
2018-04-12T18:49:21.939Z,53.93
2018-04-12T18:51:50.011Z,54.96
2018-04-12T18:54:18.033Z,54.95
2018-04-12T18:56:46.271Z,55.38
2018-04-12T18:59:14.334Z,56.23
2018-04-12T19:01:42.303Z,56.16
2018-04-12T19:04:10.950Z,56.22
2018-04-12T19:06:38.997Z,58.21
2018-04-12T19:09:07.114Z,58.12
2018-04-12T19:11:35.170Z,57.86
2018-04-12T19:14:03.164Z,58.61
2018-04-12T19:16:31.227Z,57.41
2018-04-12T19:18:59.997Z,57.51
2018-04-12T19:21:28.032Z,59.40
2018-04-12T19:23:56.272Z,59.17
2018-04-12T19:26:24.281Z,59.24
2018-04-12T19:28:52.294Z,60.84
2018-04-12T19:31:20.320Z,60.53
2018-04-12T19:33:48.513Z,60.05
2018-04-12T19:36:16.522Z,61.80
2018-04-12T19:38:44.722Z,61.94
2018-04-12T19:41:12.732Z,64.08
2018-04-12T19:43:40.791Z,63.89
2018-04-12T19:46:09.076Z,64.11
2018-04-12T19:48:37.059Z,64.94
2018-04-12T19:51:05.056Z,64.72
2018-04-12T19:53:33.153Z,65.65
2018-04-12T19:56:02.275Z,66.11
2018-04-12T19:58:30.234Z,67.67
2018-04-12T20:00:58.338Z,67.54
2018-04-12T20:03:26.355Z,67.17
2018-04-12T20:05:55.262Z,67.85
2018-04-12T20:08:23.326Z,67.83
2018-04-12T20:10:51.371Z,67.97
2018-04-12T20:13:19.375Z,68.24
2018-04-12T20:15:47.408Z,68.61
2018-04-12T20:18:15.526Z,68.32
2018-04-12T20:20:43.688Z,69.14
2018-04-12T20:23:11.725Z,68.58
2018-04-12T20:25:39.959Z,68.53
2018-04-12T20:28:08.338Z,69.51
2018-04-12T20:30:36.910Z,69.84
2018-04-12T20:33:05.692Z,68.95
2018-04-12T20:35:33.698Z,68.12
2018-04-12T20:38:01.707Z,69.87
2018-04-12T20:40:29.717Z,70.56
2018-04-12T20:42:57.764Z,71.26
2018-04-12T20:45:25.762Z,72.15
2018-04-12T20:47:54.054Z,73.56
2018-04-12T20:50:22.063Z,74.37
2018-04-12T20:52:50.114Z,73.33
2018-04-12T20:55:18.267Z,72.31
2018-04-12T20:57:46.686Z,72.89
2018-04-12T21:00:14.720Z,73.68
2018-04-12T21:02:42.791Z,74.34
2018-04-12T21:05:10.840Z,73.99
2018-04-12T21:07:38.898Z,74.49
2018-04-12T21:10:06.903Z,74.57
2018-04-12T21:12:35.055Z,75.15
2018-04-12T21:15:06.694Z,74.87
2018-04-12T21:17:34.915Z,74.93
2018-04-12T21:20:06.328Z,74.99
2018-04-12T21:22:34.338Z,75.98
2018-04-12T21:25:08.731Z,76.82
2018-04-12T21:27:36.734Z,76.88
2018-04-12T21:30:09.576Z,76.02
2018-04-12T21:32:37.596Z,75.35
2018-04-12T21:35:06.527Z,75.78
2018-04-12T21:37:35.100Z,75.85
2018-04-12T21:40:09.896Z,76.19
2018-04-12T21:42:37.925Z,77.34
2018-04-12T21:45:06.780Z,77.13
2018-04-12T21:47:34.779Z,77.39
2018-04-12T21:50:10.215Z,77.06
2018-04-12T21:52:38.200Z,77.32
2018-04-12T21:55:06.858Z,77.89
2018-04-12T21:57:34.895Z,78.12
2018-04-12T22:00:07.100Z,78.67
2018-04-12T22:02:35.107Z,79.00
2018-04-12T22:05:10.069Z,79.07
2018-04-12T22:07:38.227Z,79.51
2018-04-12T22:10:06.604Z,80.15
2018-04-12T22:12:34.668Z,80.08
2018-04-12T22:15:09.654Z,80.02
2018-04-12T22:17:37.683Z,80.44
2018-04-12T22:20:07.019Z,80.67
2018-04-12T22:22:35.086Z,80.44
2018-04-12T22:25:09.842Z,80.73
2018-04-12T22:27:37.869Z,80.93
2018-04-12T22:30:06.492Z,81.41
2018-04-12T22:32:34.564Z,81.24
2018-04-12T22:35:05.874Z,81.33
2018-04-12T22:37:33.892Z,81.36
2018-04-12T22:40:05.820Z,82.01
2018-04-12T22:42:34.583Z,81.55
2018-04-12T22:45:05.795Z,81.16
2018-04-12T22:47:33.835Z,82.00
2018-04-12T22:50:05.283Z,82.99
2018-04-12T22:52:33.327Z,82.07
2018-04-12T22:55:06.255Z,81.86
2018-04-12T22:57:34.549Z,81.84
2018-04-12T23:00:06.426Z,82.13
2018-04-12T23:02:35.048Z,82.46
2018-04-12T23:05:06.278Z,83.08
2018-04-12T23:07:34.286Z,83.65
2018-04-12T23:10:08.700Z,83.72
2018-04-12T23:12:36.724Z,83.48
2018-04-12T23:15:08.804Z,83.57
2018-04-12T23:17:36.808Z,83.27
2018-04-12T23:20:06.578Z,83.49
2018-04-12T23:22:34.587Z,83.75
2018-04-12T23:25:08.079Z,84.07
2018-04-12T23:27:36.102Z,83.53
2018-04-12T23:30:07.429Z,84.03
2018-04-12T23:32:35.430Z,84.24
2018-04-12T23:35:07.347Z,83.99
2018-04-12T23:37:35.355Z,84.48
2018-04-12T23:40:06.987Z,83.97
2018-04-12T23:42:34.990Z,84.14
2018-04-12T23:45:06.774Z,84.54
2018-04-12T23:47:35.079Z,85.01
2018-04-12T23:50:06.255Z,84.27
2018-04-12T23:52:34.476Z,84.32
2018-04-12T23:55:05.556Z,84.52
2018-04-12T23:57:33.568Z,84.58
